sensor_id;sensor_type;location;lat;lon;timestamp;pressure;altitude;pressure_sealevel;temperature;humidity
60099;BME280;62818;49.394;8.686;2022-10-16T00:00:15;100143.38;;;16.53;100.00
60099;BME280;62818;49.394;8.686;2022-10-16T00:01:18;100141.78;;;16.52;100.00
60099;BME280;62818;49.394;8.686;2022-10-16T00:02:23;100138.03;;;16.53;100.00
60099;BME280;62818;49.394;8.686;2022-10-16T00:03:26;100134.75;;;16.51;100.00
60099;BME280;62818;49.394;8.686;2022-10-16T00:04:27;100146.69;;;16.48;100.00
60099;BME280;62818;49.394;8.686;2022-10-16T00:05:30;100142.78;;;16.51;100.00
60099;BME280;62818;49.394;8.686;2022-10-16T00:06:31;100141.13;;;16.50;100.00
60099;BME280;62818;49.394;8.686;2022-10-16T00:07:32;100137.63;;;16.49;100.00
60099;BME280;62818;49.394;8.686;2022-10-16T00:08:33;100141.78;;;16.45;100.00
60099;BME280;62818;49.394;8.686;2022-10-16T00:09:34;100144.66;;;16.44;100.00
60099;BME280;62818;49.394;8.686;2022-10-16T00:10:35;100133.53;;;16.47;100.00
60099;BME280;62818;49.394;8.686;2022-10-16T00:11:38;100143.81;;;16.50;100.00
60099;BME280;62818;49.394;8.686;2022-10-16T00:12:42;100137.19;;;16.59;100.00
60099;BME280;62818;49.394;8.686;2022-10-16T00:13:43;100137.53;;;16.62;100.00
60099;BME280;62818;49.394;8.686;2022-10-16T00:14:44;100141.72;;;16.58;100.00
60099;BME280;62818;49.394;8.686;2022-10-16T00:15:48;100146.66;;;16.55;100.00
60099;BME280;62818;49.394;8.686;2022-10-16T00:16:51;100147.06;;;16.58;100.00
60099;BME280;62818;49.394;8.686;2022-10-16T00:17:51;100152.00;;;16.55;100.00
60099;BME280;62818;49.394;8.686;2022-10-16T00:18:54;100146.28;;;16.51;100.00
60099;BME280;62818;49.394;8.686;2022-10-16T00:19:56;100147.94;;;16.46;100.00
60099;BME280;62818;49.394;8.686;2022-10-16T00:21:06;100138.47;;;16.50;100.00
60099;BME280;62818;49.394;8.686;2022-10-16T00:22:10;100139.09;;;16.52;100.00
60099;BME280;62818;49.394;8.686;2022-10-16T00:23:13;100139.28;;;16.50;100.00
60099;BME280;62818;49.394;8.686;2022-10-16T00:24:16;100142.13;;;16.55;100.00
60099;BME280;62818;49.394;8.686;2022-10-16T00:25:17;100143.56;;;16.58;100.00
60099;BME280;62818;49.394;8.686;2022-10-16T00:26:18;100138.63;;;16.55;100.00
60099;BME280;62818;49.394;8.686;2022-10-16T00:27:19;100140.88;;;16.58;100.00
60099;BME280;62818;49.394;8.686;2022-10-16T00:28:20;100137.19;;;16.59;100.00
60099;BME280;62818;49.394;8.686;2022-10-16T00:29:20;100144.59;;;16.57;100.00
60099;BME280;62818;49.394;8.686;2022-10-16T00:30:23;100139.63;;;16.60;100.00
60099;BME280;62818;49.394;8.686;2022-10-16T00:31:32;100141.25;;;16.61;100.00
60099;BME280;62818;49.394;8.686;2022-10-16T00:32:35;100137.00;;;16.54;100.00
60099;BME280;62818;49.394;8.686;2022-10-16T00:33:39;100139.69;;;16.54;100.00
60099;BME280;62818;49.394;8.686;2022-10-16T00:34:40;100132.50;;;16.54;100.00
60099;BME280;62818;49.394;8.686;2022-10-16T00:35:43;100139.22;;;16.57;100.00
60099;BME280;62818;49.394;8.686;2022-10-16T00:36:43;100141.47;;;16.60;100.00
60099;BME280;62818;49.394;8.686;2022-10-16T00:37:46;100132.84;;;16.58;100.00
60099;BME280;62818;49.394;8.686;2022-10-16T00:38:56;100138.44;;;16.56;100.00
60099;BME280;62818;49.394;8.686;2022-10-16T00:40:01;100138.22;;;16.58;100.00
60099;BME280;62818;49.394;8.686;2022-10-16T00:41:03;100145.03;;;16.54;100.00
60099;BME280;62818;49.394;8.686;2022-10-16T00:42:06;100148.31;;;16.56;100.00
60099;BME280;62818;49.394;8.686;2022-10-16T00:43:36;100143.38;;;16.53;100.00
60099;BME280;62818;49.394;8.686;2022-10-16T00:44:51;100143.38;;;16.53;100.00
60099;BME280;62818;49.394;8.686;2022-10-16T00:45:59;100141.78;;;16.52;100.00
60099;BME280;62818;49.394;8.686;2022-10-16T00:47:00;100143.81;;;16.50;100.00
60099;BME280;62818;49.394;8.686;2022-10-16T00:48:01;100155.75;;;16.54;100.00
60099;BME280;62818;49.394;8.686;2022-10-16T00:51:14;100158.66;;;16.52;100.00
60099;BME280;62818;49.394;8.686;2022-10-16T00:52:16;100155.75;;;16.54;100.00
60099;BME280;62818;49.394;8.686;2022-10-16T00:53:17;100157.19;;;16.50;100.00
60099;BME280;62818;49.394;8.686;2022-10-16T00:54:22;100153.28;;;16.46;100.00
60099;BME280;62818;49.394;8.686;2022-10-16T00:55:26;100164.44;;;16.43;100.00
60099;BME280;62818;49.394;8.686;2022-10-16T00:56:30;100157.63;;;16.47;100.00
60099;BME280;62818;49.394;8.686;2022-10-16T00:57:32;100166.06;;;16.44;100.00
60099;BME280;62818;49.394;8.686;2022-10-16T00:58:37;100161.94;;;16.48;100.00
60099;BME280;62818;49.394;8.686;2022-10-16T00:59:42;100170.16;;;16.46;100.00
60099;BME280;62818;49.394;8.686;2022-10-16T01:00:45;100171.41;;;16.50;100.00
60099;BME280;62818;49.394;8.686;2022-10-16T01:01:48;100170.56;;;16.50;100.00
60099;BME280;62818;49.394;8.686;2022-10-16T01:02:57;100169.97;;;16.48;100.00
60099;BME280;62818;49.394;8.686;2022-10-16T01:04:00;100173.25;;;16.50;100.00
60099;BME280;62818;49.394;8.686;2022-10-16T01:05:04;100174.28;;;16.49;100.00
60099;BME280;62818;49.394;8.686;2022-10-16T01:10:54;100162.38;;;16.45;100.00
60099;BME280;62818;49.394;8.686;2022-10-16T01:12:10;100155.38;;;16.44;100.00
60099;BME280;62818;49.394;8.686;2022-10-16T01:13:38;100164.00;;;16.46;100.00
60099;BME280;62818;49.394;8.686;2022-10-16T01:18:01;100160.28;;;16.47;100.00
60099;BME280;62818;49.394;8.686;2022-10-16T01:20:32;100167.72;;;16.45;100.00
60099;BME280;62818;49.394;8.686;2022-10-16T01:21:43;100158.28;;;16.42;100.00
60099;BME280;62818;49.394;8.686;2022-10-16T01:24:33;100162.38;;;16.45;100.00
60099;BME280;62818;49.394;8.686;2022-10-16T01:27:09;100173.44;;;16.48;100.00
60099;BME280;62818;49.394;8.686;2022-10-16T01:28:13;100168.31;;;16.47;100.00
60099;BME280;62818;49.394;8.686;2022-10-16T01:29:24;100168.56;;;16.45;100.00
60099;BME280;62818;49.394;8.686;2022-10-16T01:30:32;100166.47;;;16.47;100.00
60099;BME280;62818;49.394;8.686;2022-10-16T01:31:40;100164.00;;;16.46;100.00
60099;BME280;62818;49.394;8.686;2022-10-16T01:32:52;100167.31;;;16.48;100.00
60099;BME280;62818;49.394;8.686;2022-10-16T01:34:05;100169.75;;;16.49;100.00
60099;BME280;62818;49.394;8.686;2022-10-16T01:35:33;100168.53;;;16.52;100.00
60099;BME280;62818;49.394;8.686;2022-10-16T01:36:49;100159.88;;;16.50;100.00
60099;BME280;62818;49.394;8.686;2022-10-16T01:39:31;100161.09;;;16.54;100.00
60099;BME280;62818;49.394;8.686;2022-10-16T01:40:38;100168.06;;;16.55;100.00
60099;BME280;62818;49.394;8.686;2022-10-16T01:41:45;100167.22;;;16.61;100.00
60099;BME280;62818;49.394;8.686;2022-10-16T01:43:07;100155.91;;;16.59;100.00
60099;BME280;62818;49.394;8.686;2022-10-16T01:44:16;100171.97;;;16.59;100.00
60099;BME280;62818;49.394;8.686;2022-10-16T01:45:28;100174.66;;;16.59;100.00
60099;BME280;62818;49.394;8.686;2022-10-16T01:46:37;100174.66;;;16.59;100.00
60099;BME280;62818;49.394;8.686;2022-10-16T01:47:40;100170.09;;;16.59;100.00
60099;BME280;62818;49.394;8.686;2022-10-16T01:48:45;100173.81;;;16.58;100.00
60099;BME280;62818;49.394;8.686;2022-10-16T01:49:49;100166.44;;;16.54;100.00
60099;BME280;62818;49.394;8.686;2022-10-16T01:51:00;100162.72;;;16.55;100.00
60099;BME280;62818;49.394;8.686;2022-10-16T01:52:12;100166.00;;;16.57;100.00
60099;BME280;62818;49.394;8.686;2022-10-16T01:53:22;100168.06;;;16.55;100.00
60099;BME280;62818;49.394;8.686;2022-10-16T01:54:33;100175.94;;;16.50;100.00
60099;BME280;62818;49.394;8.686;2022-10-16T01:55:43;100168.06;;;16.55;100.00
60099;BME280;62818;49.394;8.686;2022-10-16T01:56:48;100185.53;;;16.57;100.00
60099;BME280;62818;49.394;8.686;2022-10-16T01:57:54;100180.59;;;16.61;100.00
60099;BME280;62818;49.394;8.686;2022-10-16T01:59:09;100185.34;;;16.59;100.00
60099;BME280;62818;49.394;8.686;2022-10-16T02:00:13;100189.88;;;16.58;100.00
60099;BME280;62818;49.394;8.686;2022-10-16T02:01:21;100192.31;;;16.60;100.00
60099;BME280;62818;49.394;8.686;2022-10-16T02:02:27;100189.22;;;16.63;100.00
60099;BME280;62818;49.394;8.686;2022-10-16T02:03:32;100189.41;;;16.61;100.00
60099;BME280;62818;49.394;8.686;2022-10-16T02:04:39;100193.97;;;16.61;100.00
60099;BME280;62818;49.394;8.686;2022-10-16T02:06:01;100190.69;;;16.59;100.00
60099;BME280;62818;49.394;8.686;2022-10-16T02:07:02;100190.31;;;16.55;100.00
60099;BME280;62818;49.394;8.686;2022-10-16T02:08:07;100183.34;;;16.54;100.00
60099;BME280;62818;49.394;8.686;2022-10-16T02:09:09;100186.81;;;16.55;100.00
60099;BME280;62818;49.394;8.686;2022-10-16T02:10:10;100181.25;;;16.56;100.00
60099;BME280;62818;49.394;8.686;2022-10-16T02:11:11;100183.53;;;16.53;100.00
60099;BME280;62818;49.394;8.686;2022-10-16T02:12:16;100172.22;;;16.51;100.00
60099;BME280;62818;49.394;8.686;2022-10-16T02:13:29;100181.03;;;16.58;100.00
60099;BME280;62818;49.394;8.686;2022-10-16T02:14:38;100183.69;;;16.58;100.00
60099;BME280;62818;49.394;8.686;2022-10-16T02:15:39;100183.34;;;16.54;100.00
60099;BME280;62818;49.394;8.686;2022-10-16T02:16:44;100187.03;;;16.53;100.00
60099;BME280;62818;49.394;8.686;2022-10-16T02:17:46;100179.81;;;16.54;100.00
60099;BME280;62818;49.394;8.686;2022-10-16T02:18:49;100179.63;;;16.49;100.00
60099;BME280;62818;49.394;8.686;2022-10-16T02:19:52;100182.50;;;16.54;100.00
60099;BME280;62818;49.394;8.686;2022-10-16T02:22:50;100185.59;;;16.51;100.00
60099;BME280;62818;49.394;8.686;2022-10-16T02:24:02;100186.63;;;16.50;100.00
60099;BME280;62818;49.394;8.686;2022-10-16T02:25:10;100188.28;;;16.51;100.00
60099;BME280;62818;49.394;8.686;2022-10-16T02:26:15;100185.81;;;16.49;100.00
60099;BME280;62818;49.394;8.686;2022-10-16T02:27:40;100178.78;;;16.48;100.00
60099;BME280;62818;49.394;8.686;2022-10-16T02:29:00;100185.59;;;16.51;100.00
60099;BME280;62818;49.394;8.686;2022-10-16T02:31:35;100184.13;;;16.55;100.00
60099;BME280;62818;49.394;8.686;2022-10-16T02:32:43;100190.31;;;16.55;100.00
60099;BME280;62818;49.394;8.686;2022-10-16T02:33:46;100186.38;;;16.58;100.00
60099;BME280;62818;49.394;8.686;2022-10-16T02:34:49;100185.34;;;16.59;100.00
60099;BME280;62818;49.394;8.686;2022-10-16T02:35:51;100173.38;;;16.61;100.00
60099;BME280;62818;49.394;8.686;2022-10-16T02:36:54;100183.34;;;16.54;100.00
60099;BME280;62818;49.394;8.686;2022-10-16T02:37:57;100170.97;;;16.53;100.00
60099;BME280;62818;49.394;8.686;2022-10-16T02:38:59;100176.56;;;16.52;100.00
60099;BME280;62818;49.394;8.686;2022-10-16T02:40:07;100176.75;;;16.50;100.00
60099;BME280;62818;49.394;8.686;2022-10-16T02:41:08;100177.16;;;16.54;100.00
60099;BME280;62818;49.394;8.686;2022-10-16T02:42:13;100173.88;;;16.52;100.00
60099;BME280;62818;49.394;8.686;2022-10-16T02:43:14;100173.88;;;16.52;100.00
60099;BME280;62818;49.394;8.686;2022-10-16T02:44:15;100176.56;;;16.52;100.00
60099;BME280;62818;49.394;8.686;2022-10-16T02:45:16;100174.28;;;16.49;100.00
60099;BME280;62818;49.394;8.686;2022-10-16T02:46:19;100173.44;;;16.48;100.00
60099;BME280;62818;49.394;8.686;2022-10-16T02:47:25;100175.72;;;16.51;100.00
60099;BME280;62818;49.394;8.686;2022-10-16T02:48:25;100179.84;;;16.47;100.00
60099;BME280;62818;49.394;8.686;2022-10-16T02:49:31;100181.06;;;16.51;100.00
60099;BME280;62818;49.394;8.686;2022-10-16T02:50:33;100181.44;;;16.55;100.00
60099;BME280;62818;49.394;8.686;2022-10-16T02:51:36;100177.16;;;16.54;100.00
60099;BME280;62818;49.394;8.686;2022-10-16T02:52:42;100177.16;;;16.54;100.00
60099;BME280;62818;49.394;8.686;2022-10-16T02:53:43;100175.50;;;16.53;100.00
60099;BME280;62818;49.394;8.686;2022-10-16T02:54:44;100175.09;;;16.49;100.00
60099;BME280;62818;49.394;8.686;2022-10-16T02:55:49;100175.53;;;16.46;100.00
60099;BME280;62818;49.394;8.686;2022-10-16T02:56:50;100169.81;;;16.43;100.00
60099;BME280;62818;49.394;8.686;2022-10-16T02:57:50;100164.00;;;16.46;100.00
60099;BME280;62818;49.394;8.686;2022-10-16T02:58:51;100171.00;;;16.47;100.00
60099;BME280;62818;49.394;8.686;2022-10-16T02:59:51;100172.66;;;16.48;100.00
60099;BME280;62818;49.394;8.686;2022-10-16T03:00:55;100171.59;;;16.49;100.00
60099;BME280;62818;49.394;8.686;2022-10-16T03:01:56;100174.06;;;16.50;100.00
60099;BME280;62818;49.394;8.686;2022-10-16T03:02:58;100181.91;;;16.52;100.00
60099;BME280;62818;49.394;8.686;2022-10-16T03:03:59;100177.16;;;16.54;100.00
60099;BME280;62818;49.394;8.686;2022-10-16T03:04:59;100184.34;;;16.53;100.00
60099;BME280;62818;49.394;8.686;2022-10-16T03:06:00;100185.19;;;16.54;100.00
60099;BME280;62818;49.394;8.686;2022-10-16T03:07:01;100187.84;;;16.54;100.00
60099;BME280;62818;49.394;8.686;2022-10-16T03:08:06;100191.34;;;16.54;100.00
60099;BME280;62818;49.394;8.686;2022-10-16T03:09:09;100188.69;;;16.54;100.00
60099;BME280;62818;49.394;8.686;2022-10-16T03:10:15;100197.31;;;16.56;100.00
60099;BME280;62818;49.394;8.686;2022-10-16T03:11:18;100210.09;;;16.54;100.00
60099;BME280;62818;49.394;8.686;2022-10-16T03:12:19;100199.38;;;16.54;100.00
60099;BME280;62818;49.394;8.686;2022-10-16T03:13:21;100207.59;;;16.53;100.00
60099;BME280;62818;49.394;8.686;2022-10-16T03:14:24;100208.22;;;16.55;100.00
60099;BME280;62818;49.394;8.686;2022-10-16T03:15:27;100207.19;;;16.56;100.00
60099;BME280;62818;49.394;8.686;2022-10-16T03:16:30;100200.19;;;16.55;100.00
60099;BME280;62818;49.394;8.686;2022-10-16T03:17:32;100193.22;;;16.54;100.00
60099;BME280;62818;49.394;8.686;2022-10-16T03:18:33;100197.72;;;16.53;100.00
60099;BME280;62818;49.394;8.686;2022-10-16T03:19:36;100195.28;;;16.52;100.00
60099;BME280;62818;49.394;8.686;2022-10-16T03:20:39;100196.91;;;16.53;100.00
60099;BME280;62818;49.394;8.686;2022-10-16T03:21:42;100200.63;;;16.52;100.00
60099;BME280;62818;49.394;8.686;2022-10-16T03:22:45;100198.97;;;16.51;100.00
60099;BME280;62818;49.394;8.686;2022-10-16T03:23:45;100188.88;;;16.53;100.00
60099;BME280;62818;49.394;8.686;2022-10-16T03:24:48;100189.94;;;16.52;100.00
60099;BME280;62818;49.394;8.686;2022-10-16T03:25:51;100189.09;;;16.51;100.00
60099;BME280;62818;49.394;8.686;2022-10-16T03:26:52;100192.16;;;16.55;100.00
60099;BME280;62818;49.394;8.686;2022-10-16T03:27:55;100193.22;;;16.54;100.00
60099;BME280;62818;49.394;8.686;2022-10-16T03:28:56;100193.81;;;16.56;100.00
60099;BME280;62818;49.394;8.686;2022-10-16T03:29:56;100187.41;;;16.57;100.00
60099;BME280;62818;49.394;8.686;2022-10-16T03:30:57;100191.34;;;16.54;100.00
60099;BME280;62818;49.394;8.686;2022-10-16T03:31:57;100191.13;;;16.56;100.00
60099;BME280;62818;49.394;8.686;2022-10-16T03:32:58;100191.13;;;16.56;100.00
60099;BME280;62818;49.394;8.686;2022-10-16T03:33:59;100181.63;;;16.60;100.00
60099;BME280;62818;49.394;8.686;2022-10-16T03:35:02;100189.66;;;16.60;100.00
60099;BME280;62818;49.394;8.686;2022-10-16T03:36:03;100186.97;;;16.60;100.00
60099;BME280;62818;49.394;8.686;2022-10-16T03:37:04;100186.38;;;16.58;100.00
60099;BME280;62818;49.394;8.686;2022-10-16T03:38:04;100182.03;;;16.57;100.00
60099;BME280;62818;49.394;8.686;2022-10-16T03:39:05;100175.06;;;16.56;100.00
60099;BME280;62818;49.394;8.686;2022-10-16T03:40:06;100171.97;;;16.59;100.00
60099;BME280;62818;49.394;8.686;2022-10-16T03:41:07;100179.38;;;16.57;100.00
60099;BME280;62818;49.394;8.686;2022-10-16T03:42:07;100173.00;;;16.58;100.00
60099;BME280;62818;49.394;8.686;2022-10-16T03:43:10;100170.09;;;16.59;100.00
60099;BME280;62818;49.394;8.686;2022-10-16T03:44:11;100161.41;;;16.64;100.00
60099;BME280;62818;49.394;8.686;2022-10-16T03:45:12;100172.09;;;16.64;100.00
60099;BME280;62818;49.394;8.686;2022-10-16T03:46:12;100169.59;;;16.69;100.00
60099;BME280;62818;49.394;8.686;2022-10-16T03:47:15;100171.25;;;16.70;100.00
60099;BME280;62818;49.394;8.686;2022-10-16T03:48:21;100176.59;;;16.70;100.00
60099;BME280;62818;49.394;8.686;2022-10-16T03:49:24;100180.31;;;16.69;100.00
60099;BME280;62818;49.394;8.686;2022-10-16T03:50:25;100172.88;;;16.71;100.00
60099;BME280;62818;49.394;8.686;2022-10-16T03:51:25;100182.97;;;16.69;100.00
60099;BME280;62818;49.394;8.686;2022-10-16T03:52:26;100177.03;;;16.67;100.00
60099;BME280;62818;49.394;8.686;2022-10-16T03:53:29;100184.00;;;16.68;100.00
60099;BME280;62818;49.394;8.686;2022-10-16T03:54:29;100184.00;;;16.68;100.00
60099;BME280;62818;49.394;8.686;2022-10-16T03:55:32;100195.72;;;16.73;100.00
60099;BME280;62818;49.394;8.686;2022-10-16T03:56:35;100191.19;;;16.74;100.00
60099;BME280;62818;49.394;8.686;2022-10-16T03:57:36;100190.00;;;16.70;100.00
60099;BME280;62818;49.394;8.686;2022-10-16T03:58:36;100195.47;;;16.75;100.00
60099;BME280;62818;49.394;8.686;2022-10-16T03:59:42;100188.44;;;16.80;100.00
60099;BME280;62818;49.394;8.686;2022-10-16T04:00:44;100190.53;;;16.78;100.00
60099;BME280;62818;49.394;8.686;2022-10-16T04:01:45;100194.59;;;16.81;100.00
60099;BME280;62818;49.394;8.686;2022-10-16T04:02:45;100194.59;;;16.81;100.00
60099;BME280;62818;49.394;8.686;2022-10-16T04:03:46;100192.97;;;16.80;100.00
60099;BME280;62818;49.394;8.686;2022-10-16T04:04:46;100200.41;;;16.78;100.00
60099;BME280;62818;49.394;8.686;2022-10-16T04:05:47;100196.69;;;16.79;100.00
60099;BME280;62818;49.394;8.686;2022-10-16T04:06:48;100205.75;;;16.78;100.00
60099;BME280;62818;49.394;8.686;2022-10-16T04:07:48;100202.84;;;16.79;100.00
60099;BME280;62818;49.394;8.686;2022-10-16T04:08:51;100209.88;;;16.80;100.00
60099;BME280;62818;49.394;8.686;2022-10-16T04:09:54;100209.41;;;16.83;100.00
60099;BME280;62818;49.394;8.686;2022-10-16T04:10:57;100214.69;;;16.90;100.00
60099;BME280;62818;49.394;8.686;2022-10-16T04:11:57;100209.81;;;16.87;100.00
60099;BME280;62818;49.394;8.686;2022-10-16T04:12:58;100207.56;;;16.84;100.00
60099;BME280;62818;49.394;8.686;2022-10-16T04:14:01;100208.16;;;16.86;100.00
60099;BME280;62818;49.394;8.686;2022-10-16T04:15:05;100206.06;;;16.88;100.00
60099;BME280;62818;49.394;8.686;2022-10-16T04:16:10;100209.19;;;16.85;100.00
60099;BME280;62818;49.394;8.686;2022-10-16T04:17:10;100213.50;;;16.86;100.00
60099;BME280;62818;49.394;8.686;2022-10-16T04:18:11;100212.31;;;16.82;100.00
60099;BME280;62818;49.394;8.686;2022-10-16T04:19:12;100212.63;;;16.92;100.00
60099;BME280;62818;49.394;8.686;2022-10-16T04:20:13;100217.84;;;16.87;100.00
60099;BME280;62818;49.394;8.686;2022-10-16T04:21:14;100222.53;;;16.91;100.00
60099;BME280;62818;49.394;8.686;2022-10-16T04:22:14;100218.44;;;16.89;100.00
60099;BME280;62818;49.394;8.686;2022-10-16T04:23:15;100215.16;;;16.87;100.00
60099;BME280;62818;49.394;8.686;2022-10-16T04:24:17;100213.97;;;16.83;100.00
60099;BME280;62818;49.394;8.686;2022-10-16T04:25:18;100216.34;;;16.91;100.00
60099;BME280;62818;49.394;8.686;2022-10-16T04:26:19;100213.91;;;16.89;100.00
60099;BME280;62818;49.394;8.686;2022-10-16T04:27:19;100214.69;;;16.90;100.00
60099;BME280;62818;49.394;8.686;2022-10-16T04:28:23;100208.09;;;16.92;100.00
60099;BME280;62818;49.394;8.686;2022-10-16T04:29:23;100220.44;;;16.93;100.00
60099;BME280;62818;49.394;8.686;2022-10-16T04:30:24;100224.97;;;16.93;100.00
60099;BME280;62818;49.394;8.686;2022-10-16T04:31:24;100223.31;;;16.92;100.00
60099;BME280;62818;49.394;8.686;2022-10-16T04:32:27;100229.91;;;16.96;100.00
60099;BME280;62818;49.394;8.686;2022-10-16T04:33:28;100227.34;;;17.01;100.00
60099;BME280;62818;49.394;8.686;2022-10-16T04:34:30;100224.91;;;16.99;100.00
60099;BME280;62818;49.394;8.686;2022-10-16T04:35:31;100227.34;;;17.01;100.00
60099;BME280;62818;49.394;8.686;2022-10-16T04:36:32;100225.28;;;17.03;100.00
60099;BME280;62818;49.394;8.686;2022-10-16T04:37:32;100238.66;;;17.03;100.00
60099;BME280;62818;49.394;8.686;2022-10-16T04:38:33;100239.72;;;17.02;100.00
60099;BME280;62818;49.394;8.686;2022-10-16T04:39:33;100238.47;;;17.04;100.00
60099;BME280;62818;49.394;8.686;2022-10-16T04:40:36;100231.09;;;17.00;100.00
60099;BME280;62818;49.394;8.686;2022-10-16T04:41:39;100240.31;;;17.04;100.00
60099;BME280;62818;49.394;8.686;2022-10-16T04:42:42;100234.78;;;16.99;100.00
60099;BME280;62818;49.394;8.686;2022-10-16T04:43:42;100236.66;;;16.98;100.00
60099;BME280;62818;49.394;8.686;2022-10-16T04:44:43;100233.94;;;17.05;100.00
60099;BME280;62818;49.394;8.686;2022-10-16T04:45:43;100221.56;;;17.04;100.00
60099;BME280;62818;49.394;8.686;2022-10-16T04:46:44;100221.22;;;17.00;100.00
60099;BME280;62818;49.394;8.686;2022-10-16T04:47:44;100224.09;;;16.99;100.00
60099;BME280;62818;49.394;8.686;2022-10-16T04:48:47;100217.47;;;17.01;100.00
60099;BME280;62818;49.394;8.686;2022-10-16T04:49:48;100214.13;;;17.06;100.00
60099;BME280;62818;49.394;8.686;2022-10-16T04:50:49;100210.88;;;17.04;100.00
60099;BME280;62818;49.394;8.686;2022-10-16T04:51:49;100219.13;;;17.02;100.00
60099;BME280;62818;49.394;8.686;2022-10-16T04:52:52;100231.09;;;17.00;100.00
60099;BME280;62818;49.394;8.686;2022-10-16T04:53:55;100231.09;;;17.00;100.00
60099;BME280;62818;49.394;8.686;2022-10-16T04:54:56;100229.44;;;16.99;100.00
60099;BME280;62818;49.394;8.686;2022-10-16T04:56:01;100219.97;;;16.96;100.00
60099;BME280;62818;49.394;8.686;2022-10-16T04:57:04;100221.63;;;16.97;100.00
60099;BME280;62818;49.394;8.686;2022-10-16T04:58:07;100222.00;;;17.01;100.00
60099;BME280;62818;49.394;8.686;2022-10-16T04:59:09;100220.16;;;17.01;100.00
60099;BME280;62818;49.394;8.686;2022-10-16T05:00:17;100221.41;;;16.99;100.00
60099;BME280;62818;49.394;8.686;2022-10-16T05:01:23;100223.66;;;17.02;100.00
60099;BME280;62818;49.394;8.686;2022-10-16T05:02:23;100231.53;;;16.97;100.00
60099;BME280;62818;49.394;8.686;2022-10-16T05:03:24;100235.25;;;16.96;100.00
60099;BME280;62818;49.394;8.686;2022-10-16T05:04:25;100226.63;;;16.94;100.00
60099;BME280;62818;49.394;8.686;2022-10-16T05:05:30;100231.59;;;16.90;100.00
60099;BME280;62818;49.394;8.686;2022-10-16T05:06:30;100228.38;;;16.82;100.00
60099;BME280;62818;49.394;8.686;2022-10-16T05:07:31;100216.63;;;16.83;100.00
60099;BME280;62818;49.394;8.686;2022-10-16T05:08:32;100212.72;;;16.79;100.00
60099;BME280;62818;49.394;8.686;2022-10-16T05:09:32;100211.13;;;16.78;100.00
60099;BME280;62818;49.394;8.686;2022-10-16T05:10:36;100203.50;;;16.75;100.00
60099;BME280;62818;49.394;8.686;2022-10-16T05:11:36;100209.03;;;16.80;100.00
60099;BME280;62818;49.394;8.686;2022-10-16T05:12:39;100207.97;;;16.81;100.00
60099;BME280;62818;49.394;8.686;2022-10-16T05:13:40;100209.03;;;16.80;100.00
60099;BME280;62818;49.394;8.686;2022-10-16T05:14:45;100217.66;;;16.82;100.00
60099;BME280;62818;49.394;8.686;2022-10-16T05:15:49;100213.56;;;16.79;100.00
60099;BME280;62818;49.394;8.686;2022-10-16T05:16:53;100213.34;;;16.81;100.00
60099;BME280;62818;49.394;8.686;2022-10-16T05:17:55;100232.06;;;16.81;100.00
60099;BME280;62818;49.394;8.686;2022-10-16T05:18:55;100226.72;;;16.81;100.00
60099;BME280;62818;49.394;8.686;2022-10-16T05:19:59;100238.06;;;16.83;100.00
60099;BME280;62818;49.394;8.686;2022-10-16T05:21:05;100232.91;;;16.81;100.00
60099;BME280;62818;49.394;8.686;2022-10-16T05:22:08;100235.38;;;16.83;100.00
60099;BME280;62818;49.394;8.686;2022-10-16T05:23:08;100239.50;;;16.79;100.00
60099;BME280;62818;49.394;8.686;2022-10-16T05:24:10;100228.06;;;16.72;100.00
60099;BME280;62818;49.394;8.686;2022-10-16T05:25:10;100231.34;;;16.74;100.00
60099;BME280;62818;49.394;8.686;2022-10-16T05:26:11;100234.00;;;16.74;100.00
60099;BME280;62818;49.394;8.686;2022-10-16T05:27:15;100236.50;;;16.69;100.00
60099;BME280;62818;49.394;8.686;2022-10-16T05:28:21;100228.72;;;16.67;100.00
60099;BME280;62818;49.394;8.686;2022-10-16T05:29:22;100224.97;;;16.68;100.00
60099;BME280;62818;49.394;8.686;2022-10-16T05:30:22;100226.22;;;16.66;100.00
60099;BME280;62818;49.394;8.686;2022-10-16T05:31:25;100224.00;;;16.63;100.00
60099;BME280;62818;49.394;8.686;2022-10-16T05:32:26;100220.50;;;16.62;100.00
60099;BME280;62818;49.394;8.686;2022-10-16T05:33:28;100218.66;;;16.63;100.00
60099;BME280;62818;49.394;8.686;2022-10-16T05:34:29;100213.63;;;16.73;100.00
60099;BME280;62818;49.394;8.686;2022-10-16T05:35:34;100211.34;;;16.76;100.00
60099;BME280;62818;49.394;8.686;2022-10-16T05:36:35;100207.25;;;16.74;100.00
60099;BME280;62818;49.394;8.686;2022-10-16T05:37:35;100216.91;;;16.75;100.00
60099;BME280;62818;49.394;8.686;2022-10-16T05:38:36;100217.34;;;16.72;100.00
60099;BME280;62818;49.394;8.686;2022-10-16T05:39:38;100219.38;;;16.76;100.00
60099;BME280;62818;49.394;8.686;2022-10-16T05:40:41;100217.66;;;16.82;100.00
60099;BME280;62818;49.394;8.686;2022-10-16T05:41:43;100224.03;;;16.81;100.00
60099;BME280;62818;49.394;8.686;2022-10-16T05:42:44;100218.84;;;16.86;100.00
60099;BME280;62818;49.394;8.686;2022-10-16T05:43:46;100218.44;;;16.89;100.00
60099;BME280;62818;49.394;8.686;2022-10-16T05:44:48;100220.50;;;16.87;100.00
60099;BME280;62818;49.394;8.686;2022-10-16T05:46:02;100230.03;;;16.83;100.00
60099;BME280;62818;49.394;8.686;2022-10-16T05:47:06;100230.63;;;16.85;100.00
60099;BME280;62818;49.394;8.686;2022-10-16T05:48:06;100227.94;;;16.85;100.00